createdAt,value
2022-12-03T00:01:15.264Z,3.45
2022-12-03T00:03:41.999Z,3.52
2022-12-03T00:06:08.654Z,3.55
2022-12-03T00:08:35.186Z,3.72
2022-12-03T00:11:01.703Z,3.73
2022-12-03T00:13:28.523Z,3.82
2022-12-03T00:15:55.070Z,3.71
2022-12-03T00:18:21.986Z,3.72
2022-12-03T00:20:48.829Z,3.85
2022-12-03T00:23:15.826Z,3.79
2022-12-03T00:25:42.378Z,3.76
2022-12-03T00:28:10.238Z,3.79
2022-12-03T00:30:36.849Z,3.67
2022-12-03T00:33:03.411Z,3.52
2022-12-03T00:35:30.361Z,3.73
2022-12-03T00:37:56.913Z,3.54
2022-12-03T00:40:23.495Z,3.66
2022-12-03T00:42:50.028Z,3.79
2022-12-03T00:45:16.725Z,3.71
2022-12-03T00:47:43.297Z,3.76
2022-12-03T00:50:10.333Z,3.73
2022-12-03T00:52:36.878Z,3.66
2022-12-03T00:55:04.936Z,3.63
2022-12-03T00:57:31.485Z,3.61
2022-12-03T00:59:57.993Z,3.76
2022-12-03T01:02:24.666Z,3.85
2022-12-03T01:04:51.712Z,3.93
2022-12-03T01:07:18.434Z,4.03
2022-12-03T01:09:45.009Z,3.86
2022-12-03T01:12:11.947Z,3.86
2022-12-03T01:14:38.482Z,3.82
2022-12-03T01:17:05.073Z,3.68
2022-12-03T01:19:31.616Z,3.65
2022-12-03T01:21:58.099Z,3.54
2022-12-03T01:24:24.929Z,3.53
2022-12-03T01:26:51.528Z,3.67
2022-12-03T01:29:18.412Z,3.67
2022-12-03T01:32:03.605Z,3.77
2022-12-03T01:34:30.173Z,3.75
2022-12-03T01:36:56.809Z,3.78
2022-12-03T01:39:23.747Z,3.59
2022-12-03T01:41:52.444Z,3.63
2022-12-03T01:44:28.914Z,3.66
2022-12-03T01:46:58.532Z,3.73
2022-12-03T01:49:29.635Z,3.72
2022-12-03T01:51:57.778Z,3.87
2022-12-03T01:54:38.037Z,3.96
2022-12-03T01:57:13.985Z,3.85
2022-12-03T01:59:40.705Z,3.76
2022-12-03T02:02:20.966Z,3.74
2022-12-03T02:04:47.724Z,3.62
2022-12-03T02:07:20.147Z,3.59
2022-12-03T02:09:46.900Z,3.77
2022-12-03T02:12:17.523Z,3.79
2022-12-03T02:14:44.475Z,3.95
2022-12-03T02:17:12.198Z,3.63
2022-12-03T02:19:39.156Z,3.73
2022-12-03T02:22:30.478Z,3.75
2022-12-03T02:25:14.210Z,3.94
2022-12-03T02:27:41.544Z,4.02
2022-12-03T02:30:09.412Z,4.02
2022-12-03T02:32:36.943Z,4.14
2022-12-03T02:35:04.103Z,4.16
2022-12-03T02:37:35.074Z,3.99
2022-12-03T02:40:07.142Z,3.80
2022-12-03T02:42:36.802Z,3.83
2022-12-03T02:45:11.141Z,3.85
2022-12-03T02:47:44.530Z,3.72
2022-12-03T02:50:15.100Z,4.05
2022-12-03T02:52:44.615Z,3.93
2022-12-03T02:55:13.553Z,3.96
2022-12-03T02:57:40.855Z,3.80
2022-12-03T03:00:09.402Z,3.85
2022-12-03T03:02:37.284Z,3.80
2022-12-03T03:05:07.287Z,3.64
2022-12-03T03:07:35.544Z,3.70
2022-12-03T03:10:04.919Z,3.80
2022-12-03T03:12:34.805Z,3.71
2022-12-03T03:15:07.086Z,3.83
2022-12-03T03:17:34.058Z,3.76
2022-12-03T03:20:01.306Z,3.74
2022-12-03T03:22:36.163Z,3.63
2022-12-03T03:25:04.499Z,3.80
2022-12-03T03:27:31.314Z,3.83
2022-12-03T03:29:59.294Z,3.72
2022-12-03T03:32:28.050Z,3.78
2022-12-03T03:34:56.175Z,3.83
2022-12-03T03:37:23.994Z,3.75
2022-12-03T03:39:51.019Z,3.67
2022-12-03T03:42:17.803Z,3.47
2022-12-03T03:44:44.595Z,3.46
2022-12-03T03:47:12.640Z,3.43
2022-12-03T03:49:39.524Z,3.54
2022-12-03T03:52:06.393Z,3.74
2022-12-03T03:54:33.143Z,3.72
2022-12-03T03:56:59.802Z,3.66
2022-12-03T03:59:26.411Z,3.55
2022-12-03T04:01:52.926Z,3.58
2022-12-03T04:04:22.096Z,3.69
2022-12-03T04:06:49.042Z,3.72
2022-12-03T04:09:16.105Z,3.77
2022-12-03T04:12:01.438Z,3.75
2022-12-03T04:14:28.045Z,3.87
2022-12-03T04:16:54.599Z,4.03
2022-12-03T04:19:21.314Z,4.10
2022-12-03T04:22:06.580Z,4.11
2022-12-03T04:24:33.263Z,4.02
2022-12-03T04:27:18.444Z,3.92
2022-12-03T04:29:45.188Z,3.97
2022-12-03T04:32:30.334Z,3.83
2022-12-03T04:35:15.822Z,3.86
2022-12-03T04:37:42.887Z,3.73
2022-12-03T04:40:30.200Z,3.61
2022-12-03T04:42:57.091Z,3.48
2022-12-03T04:45:23.954Z,3.56
2022-12-03T04:47:50.557Z,3.51
2022-12-03T04:50:17.225Z,3.59
2022-12-03T04:52:43.909Z,3.73
2022-12-03T04:55:10.410Z,3.51
2022-12-03T04:57:36.904Z,3.54
2022-12-03T05:00:05.273Z,3.54
2022-12-03T05:02:32.030Z,3.52
2022-12-03T05:04:58.655Z,3.65
2022-12-03T05:07:26.078Z,3.64
2022-12-03T05:09:52.620Z,3.60
2022-12-03T05:12:19.179Z,3.57
2022-12-03T05:14:45.726Z,3.41
2022-12-03T05:17:12.339Z,3.44
2022-12-03T05:20:14.286Z,3.57
2022-12-03T05:22:41.117Z,3.67
2022-12-03T05:25:08.422Z,3.72
2022-12-03T05:27:35.064Z,3.66
2022-12-03T05:30:01.868Z,3.67
2022-12-03T05:32:28.409Z,3.47
2022-12-03T05:34:55.284Z,3.40
2022-12-03T05:37:22.091Z,3.48
2022-12-03T05:39:48.612Z,3.42
2022-12-03T05:42:33.668Z,3.41
2022-12-03T05:45:00.280Z,3.43
2022-12-03T05:47:26.844Z,3.40
2022-12-03T05:49:53.413Z,3.52
2022-12-03T05:52:19.936Z,3.37
2022-12-03T05:54:46.580Z,3.21
2022-12-03T05:57:13.224Z,3.16
2022-12-03T05:59:39.730Z,3.22
2022-12-03T06:02:07.052Z,3.22
2022-12-03T06:04:33.694Z,3.30
2022-12-03T06:07:00.260Z,3.46
2022-12-03T06:09:26.831Z,3.62
2022-12-03T06:11:54.106Z,3.33
2022-12-03T06:14:21.214Z,3.27
2022-12-03T06:16:47.747Z,3.21
2022-12-03T06:19:14.394Z,3.03
2022-12-03T06:21:40.923Z,3.06
2022-12-03T06:24:07.684Z,3.17
2022-12-03T06:26:34.181Z,3.23
2022-12-03T06:29:00.732Z,3.41
2022-12-03T06:31:27.328Z,3.40
2022-12-03T06:33:53.893Z,3.47
2022-12-03T06:36:23.218Z,3.27
2022-12-03T06:38:50.118Z,3.27
2022-12-03T06:41:16.641Z,3.30
2022-12-03T06:43:44.118Z,3.49
2022-12-03T06:46:11.037Z,3.52
2022-12-03T06:48:37.633Z,3.38
2022-12-03T06:51:04.472Z,3.27
2022-12-03T06:53:31.213Z,3.16
2022-12-03T06:55:57.809Z,3.25
2022-12-03T06:58:24.670Z,3.11
2022-12-03T07:00:51.185Z,3.14
2022-12-03T07:03:18.048Z,3.15
2022-12-03T07:05:44.621Z,3.07
2022-12-03T07:08:11.377Z,2.97
2022-12-03T07:10:37.938Z,3.08
2022-12-03T07:13:04.746Z,2.99
2022-12-03T07:15:31.249Z,3.14
2022-12-03T07:17:57.962Z,3.17
2022-12-03T07:20:24.619Z,3.18
2022-12-03T07:22:51.287Z,3.15
2022-12-03T07:25:22.900Z,3.22
2022-12-03T07:27:50.206Z,3.16
2022-12-03T07:30:17.443Z,3.14
2022-12-03T07:32:44.030Z,3.15
2022-12-03T07:35:10.718Z,3.18
2022-12-03T07:37:37.446Z,3.25
2022-12-03T07:40:05.023Z,3.19
2022-12-03T07:42:31.690Z,3.28
2022-12-03T07:44:58.234Z,3.25
2022-12-03T07:47:24.973Z,3.20
2022-12-03T07:49:51.457Z,2.97
2022-12-03T07:52:18.336Z,3.01
2022-12-03T07:54:44.933Z,3.15
2022-12-03T07:57:11.434Z,3.26
2022-12-03T07:59:38.096Z,3.22
2022-12-03T08:02:04.934Z,2.99
2022-12-03T08:04:31.495Z,3.11
2022-12-03T08:06:58.252Z,3.16
2022-12-03T08:09:25.004Z,3.18
2022-12-03T08:11:51.947Z,3.38
2022-12-03T08:14:19.937Z,3.39
2022-12-03T08:16:47.828Z,3.29
2022-12-03T08:19:17.137Z,3.27
2022-12-03T08:21:44.123Z,3.40
2022-12-03T08:24:13.722Z,3.11
2022-12-03T08:26:41.469Z,3.26
2022-12-03T08:29:10.245Z,3.36
2022-12-03T08:31:37.050Z,3.35
2022-12-03T08:34:24.190Z,3.31
2022-12-03T08:36:55.919Z,3.36
2022-12-03T08:39:30.876Z,3.44
2022-12-03T08:42:26.822Z,3.52
2022-12-03T08:44:55.259Z,3.48
2022-12-03T08:47:23.981Z,3.43
2022-12-03T08:49:57.896Z,3.37
2022-12-03T08:52:31.421Z,3.41
2022-12-03T08:54:58.741Z,3.42
2022-12-03T08:57:30.888Z,3.32
2022-12-03T09:00:03.958Z,3.37
2022-12-03T09:02:34.377Z,3.32
2022-12-03T09:05:29.208Z,3.30
2022-12-03T09:07:55.898Z,3.20
2022-12-03T09:10:22.760Z,3.16
2022-12-03T09:12:49.350Z,3.26
2022-12-03T09:15:15.974Z,3.45
2022-12-03T09:17:42.555Z,3.25
2022-12-03T09:20:09.647Z,3.11
2022-12-03T09:22:36.605Z,3.15
2022-12-03T09:25:21.939Z,3.11
2022-12-03T09:27:49.690Z,3.18
2022-12-03T09:30:16.672Z,3.09
2022-12-03T09:32:43.548Z,3.05
2022-12-03T09:35:10.052Z,3.16
2022-12-03T09:37:36.641Z,3.39
2022-12-03T09:40:03.947Z,3.32
2022-12-03T09:42:30.826Z,3.49
2022-12-03T09:44:57.436Z,3.29
2022-12-03T09:47:25.068Z,3.15
2022-12-03T09:49:52.945Z,3.19
2022-12-03T09:52:25.840Z,3.09
2022-12-03T09:54:53.241Z,3.20
2022-12-03T09:57:20.241Z,3.11
2022-12-03T09:59:46.995Z,3.22
2022-12-03T10:02:22.533Z,3.29
2022-12-03T10:04:49.689Z,3.30
2022-12-03T10:07:16.825Z,3.19
2022-12-03T10:09:43.577Z,3.23
2022-12-03T10:12:15.000Z,3.32
2022-12-03T10:14:42.858Z,3.09
2022-12-03T10:17:11.453Z,3.01
2022-12-03T10:19:39.624Z,3.13
2022-12-03T10:22:06.309Z,3.24
2022-12-03T10:24:34.822Z,3.39
2022-12-03T10:27:04.162Z,3.34
2022-12-03T10:29:36.171Z,3.23
2022-12-03T10:32:05.065Z,3.07
2022-12-03T10:34:34.549Z,3.08
2022-12-03T10:37:15.928Z,3.33
2022-12-03T10:40:05.165Z,3.22
2022-12-03T10:42:33.866Z,3.23
2022-12-03T10:45:20.745Z,3.16
2022-12-03T10:48:11.909Z,3.22
2022-12-03T10:50:47.570Z,3.20
2022-12-03T10:53:14.400Z,3.52
2022-12-03T10:55:42.712Z,3.39
2022-12-03T10:58:18.964Z,3.10
2022-12-03T11:00:45.560Z,3.32
2022-12-03T11:03:18.595Z,3.37
2022-12-03T11:05:45.383Z,3.36
2022-12-03T11:08:17.339Z,3.36
2022-12-03T11:10:44.074Z,3.25
2022-12-03T11:13:44.451Z,3.42
2022-12-03T11:16:12.282Z,3.50
2022-12-03T11:18:39.037Z,3.49
2022-12-03T11:21:11.111Z,3.43
2022-12-03T11:23:46.752Z,3.55
2022-12-03T11:26:29.106Z,3.34
2022-12-03T11:28:57.671Z,3.38
2022-12-03T11:31:36.348Z,3.29
2022-12-03T11:34:18.327Z,3.32
2022-12-03T11:37:09.921Z,3.16
2022-12-03T11:39:51.737Z,3.31
2022-12-03T11:42:27.442Z,3.53
2022-12-03T11:45:03.480Z,3.55
2022-12-03T11:47:58.984Z,3.50
2022-12-03T11:50:39.828Z,3.39
2022-12-03T11:53:21.117Z,3.34
2022-12-03T11:56:06.144Z,3.28
2022-12-03T11:58:33.670Z,3.36
2022-12-03T12:01:03.770Z,3.38
2022-12-03T12:03:35.871Z,3.22
2022-12-03T12:06:16.912Z,3.15
2022-12-03T12:08:49.592Z,3.37
2022-12-03T12:11:18.840Z,3.27
2022-12-03T12:13:45.256Z,3.35
2022-12-03T12:16:11.930Z,3.44
2022-12-03T12:18:45.664Z,3.40
2022-12-03T12:21:43.636Z,3.42
2022-12-03T12:24:47.716Z,3.44
2022-12-03T12:27:46.182Z,3.56
2022-12-03T12:30:15.377Z,3.67
2022-12-03T12:32:46.984Z,3.65
2022-12-03T12:35:14.279Z,3.71
2022-12-03T12:38:00.137Z,3.66
2022-12-03T12:40:30.604Z,3.55
2022-12-03T12:43:08.222Z,3.61
2022-12-03T12:45:41.412Z,3.55
2022-12-03T12:48:15.110Z,3.47
2022-12-03T12:50:47.111Z,3.64
2022-12-03T12:53:32.464Z,3.50
2022-12-03T12:56:11.208Z,3.46
2022-12-03T12:58:38.035Z,3.49
2022-12-03T13:01:11.180Z,3.39
2022-12-03T13:03:39.309Z,3.46
2022-12-03T13:06:06.387Z,3.39
2022-12-03T13:08:42.450Z,3.57
2022-12-03T13:11:34.333Z,3.35
2022-12-03T13:14:23.404Z,3.41
2022-12-03T13:16:51.948Z,3.62
2022-12-03T13:19:24.601Z,3.62
2022-12-03T13:21:53.557Z,3.72
2022-12-03T13:24:26.148Z,3.58
2022-12-03T13:26:52.907Z,3.49
2022-12-03T13:29:22.548Z,3.64
2022-12-03T13:31:58.558Z,3.72
2022-12-03T13:34:28.222Z,3.67
2022-12-03T13:36:58.525Z,3.62
2022-12-03T13:39:36.463Z,3.75
2022-12-03T13:42:33.415Z,3.64
2022-12-03T13:45:02.571Z,3.51
2022-12-03T13:47:29.097Z,3.38
2022-12-03T13:50:03.472Z,3.11
2022-12-03T13:52:32.777Z,3.29
2022-12-03T13:55:03.328Z,3.30
2022-12-03T13:57:29.878Z,3.52
2022-12-03T13:59:56.882Z,3.54
2022-12-03T14:02:23.721Z,3.40
2022-12-03T14:04:53.014Z,3.22
2022-12-03T14:07:22.027Z,3.32
2022-12-03T14:09:48.531Z,3.49
2022-12-03T14:12:27.013Z,3.59
2022-12-03T14:14:53.851Z,3.54
2022-12-03T14:17:20.639Z,3.60
2022-12-03T14:19:47.209Z,3.74
2022-12-03T14:22:13.976Z,3.64
2022-12-03T14:24:40.642Z,3.61
2022-12-03T14:27:07.110Z,3.47
2022-12-03T14:29:33.770Z,3.42
2022-12-03T14:32:00.474Z,3.30
2022-12-03T14:34:27.215Z,3.34
2022-12-03T14:36:53.843Z,3.38
2022-12-03T14:39:20.753Z,3.33
2022-12-03T14:42:06.023Z,3.26
2022-12-03T14:44:32.566Z,3.20
2022-12-03T14:46:59.105Z,3.25
2022-12-03T14:49:25.709Z,3.54
2022-12-03T14:51:53.101Z,3.60
2022-12-03T14:54:19.765Z,3.58
2022-12-03T14:56:46.362Z,3.47
2022-12-03T14:59:13.099Z,3.24
2022-12-03T15:01:39.872Z,3.16
2022-12-03T15:04:06.618Z,3.23
2022-12-03T15:06:33.315Z,3.25
2022-12-03T15:08:59.853Z,3.35
2022-12-03T15:11:26.527Z,3.40
2022-12-03T15:13:53.217Z,3.40
2022-12-03T15:16:20.219Z,3.34
2022-12-03T15:18:46.805Z,3.30
2022-12-03T15:21:13.374Z,3.00
2022-12-03T15:23:39.954Z,3.01
2022-12-03T15:26:06.748Z,2.97
2022-12-03T15:28:33.260Z,3.07
2022-12-03T15:31:00.002Z,3.16
2022-12-03T15:33:26.959Z,3.24
2022-12-03T15:35:53.761Z,3.23
2022-12-03T15:38:20.456Z,3.02
2022-12-03T15:40:47.107Z,2.83
2022-12-03T15:43:13.801Z,2.72
2022-12-03T15:45:40.538Z,3.00
2022-12-03T15:48:07.302Z,3.15
2022-12-03T15:50:39.748Z,3.02
2022-12-03T15:53:06.809Z,3.10
2022-12-03T15:55:33.365Z,3.06
2022-12-03T15:58:00.383Z,2.98
2022-12-03T16:00:26.883Z,3.07
2022-12-03T16:02:53.636Z,3.14
2022-12-03T16:05:20.291Z,2.99
2022-12-03T16:07:46.991Z,2.77
2022-12-03T16:10:13.664Z,2.98
2022-12-03T16:12:40.300Z,2.98
2022-12-03T16:15:07.351Z,3.02
2022-12-03T16:17:34.001Z,3.02
2022-12-03T16:20:00.520Z,3.13
2022-12-03T16:22:27.045Z,3.07
2022-12-03T16:24:53.559Z,3.00
2022-12-03T16:27:24.157Z,2.89
2022-12-03T16:29:52.765Z,2.99
2022-12-03T16:32:19.705Z,3.06
2022-12-03T16:34:46.413Z,2.99
2022-12-03T16:37:13.189Z,3.02
2022-12-03T16:39:47.211Z,2.99
2022-12-03T16:42:17.228Z,2.96
2022-12-03T16:45:13.416Z,2.98
2022-12-03T16:47:40.490Z,3.00
2022-12-03T16:50:10.688Z,2.86
2022-12-03T16:52:40.963Z,2.87
2022-12-03T16:55:08.042Z,2.88
2022-12-03T16:57:34.692Z,2.92
2022-12-03T17:00:02.782Z,2.97
2022-12-03T17:02:29.690Z,2.95
2022-12-03T17:04:56.406Z,2.99
2022-12-03T17:07:22.952Z,3.07
2022-12-03T17:09:49.700Z,2.85
2022-12-03T17:12:16.262Z,2.82
2022-12-03T17:14:42.808Z,2.87
2022-12-03T17:17:09.441Z,2.82
2022-12-03T17:19:35.981Z,2.72
2022-12-03T17:22:02.615Z,2.78
2022-12-03T17:24:29.237Z,2.90
2022-12-03T17:26:55.782Z,2.90
2022-12-03T17:29:22.408Z,2.78
2022-12-03T17:31:49.156Z,2.62
2022-12-03T17:34:16.145Z,2.62
2022-12-03T17:36:42.713Z,2.86
2022-12-03T17:39:09.240Z,2.82
2022-12-03T17:41:35.886Z,2.79
2022-12-03T17:44:09.637Z,2.89
2022-12-03T17:46:37.462Z,2.91
2022-12-03T17:49:04.114Z,2.97
2022-12-03T17:51:30.806Z,3.02
2022-12-03T17:53:57.344Z,2.87
2022-12-03T17:56:23.994Z,2.81
2022-12-03T17:58:50.466Z,2.78
2022-12-03T18:01:17.240Z,2.85
2022-12-03T18:03:44.641Z,2.79
2022-12-03T18:06:11.371Z,2.85
2022-12-03T18:08:37.959Z,2.66
2022-12-03T18:11:04.637Z,2.76
2022-12-03T18:13:31.215Z,2.82
2022-12-03T18:15:57.945Z,2.79
2022-12-03T18:18:24.510Z,2.63
2022-12-03T18:20:53.087Z,2.66
2022-12-03T18:23:20.622Z,2.73
2022-12-03T18:25:47.245Z,2.71
2022-12-03T18:28:13.825Z,2.71
2022-12-03T18:30:40.456Z,2.73
2022-12-03T18:33:07.092Z,2.79
2022-12-03T18:35:33.782Z,2.72
2022-12-03T18:38:00.894Z,2.58
2022-12-03T18:40:27.857Z,2.60
2022-12-03T18:42:55.949Z,2.58
2022-12-03T18:45:22.703Z,2.66
2022-12-03T18:47:49.521Z,2.72
2022-12-03T18:50:16.280Z,2.83
2022-12-03T18:52:43.002Z,2.88
2022-12-03T18:55:17.681Z,2.68
2022-12-03T18:57:45.017Z,2.72
2022-12-03T19:00:13.837Z,2.84
2022-12-03T19:05:27.719Z,2.90
2022-12-03T19:07:55.549Z,2.63
2022-12-03T19:10:23.086Z,2.77
2022-12-03T19:12:49.661Z,2.84
2022-12-03T19:15:16.585Z,2.91
2022-12-03T19:17:47.844Z,3.02
2022-12-03T19:20:15.034Z,2.96
2022-12-03T19:22:41.548Z,2.91
2022-12-03T19:25:08.368Z,2.84
2022-12-03T19:27:34.978Z,2.74
2022-12-03T19:30:01.584Z,2.81
2022-12-03T19:32:28.340Z,2.73
2022-12-03T19:34:55.057Z,2.68
2022-12-03T19:37:21.759Z,2.91
2022-12-03T19:39:53.159Z,2.73
2022-12-03T19:42:19.965Z,2.58
2022-12-03T19:44:46.685Z,2.63
2022-12-03T19:47:13.416Z,2.62
2022-12-03T19:49:40.049Z,2.74
2022-12-03T19:52:06.660Z,2.68
2022-12-03T19:54:33.176Z,2.49
2022-12-03T19:56:59.809Z,2.58
2022-12-03T19:59:26.408Z,2.66
2022-12-03T20:01:53.192Z,2.49
2022-12-03T20:04:20.226Z,2.62
2022-12-03T20:06:47.460Z,2.45
2022-12-03T20:09:17.541Z,2.54
2022-12-03T20:11:45.559Z,2.45
2022-12-03T20:14:15.268Z,2.55
2022-12-03T20:16:42.604Z,2.70
2022-12-03T20:19:12.145Z,2.77
2022-12-03T20:21:39.890Z,2.80
2022-12-03T20:24:07.157Z,2.75
2022-12-03T20:26:34.273Z,2.61
2022-12-03T20:29:01.474Z,2.60
2022-12-03T20:31:31.211Z,2.70
2022-12-03T20:34:00.675Z,2.73
2022-12-03T20:36:30.021Z,2.78
2022-12-03T20:38:59.617Z,2.93
2022-12-03T20:41:26.161Z,2.80
2022-12-03T20:43:53.711Z,2.73
2022-12-03T20:46:23.796Z,2.59
2022-12-03T20:48:50.396Z,2.50
2022-12-03T20:51:19.438Z,2.35
2022-12-03T20:53:47.342Z,2.26
2022-12-03T20:56:34.920Z,2.48
2022-12-03T20:59:05.117Z,2.47
2022-12-03T21:01:32.466Z,2.53
2022-12-03T21:03:59.231Z,2.59
2022-12-03T21:06:27.938Z,2.69
2022-12-03T21:08:56.542Z,2.61
2022-12-03T21:11:26.206Z,2.40
2022-12-03T21:13:54.327Z,2.42
2022-12-03T21:16:52.093Z,2.53
2022-12-03T21:19:13.817Z,2.49
2022-12-03T21:21:40.347Z,2.51
2022-12-03T21:24:07.386Z,2.51
2022-12-03T21:26:33.994Z,2.66
2022-12-03T21:29:00.625Z,2.66
2022-12-03T21:31:27.427Z,2.56
2022-12-03T21:33:55.761Z,2.57
2022-12-03T21:36:23.772Z,2.65
2022-12-03T21:38:51.355Z,2.63
2022-12-03T21:41:18.264Z,2.76
2022-12-03T21:43:44.935Z,2.59
2022-12-03T21:47:10.410Z,2.45
2022-12-03T21:49:01.745Z,2.62
2022-12-03T21:51:29.526Z,2.56
2022-12-03T21:53:56.178Z,2.67
2022-12-03T21:56:23.117Z,2.74
2022-12-03T21:58:49.963Z,2.70
2022-12-03T22:01:21.749Z,2.50
2022-12-03T22:03:49.264Z,2.58
2022-12-03T22:06:16.472Z,2.71
2022-12-03T22:08:43.268Z,2.59
2022-12-03T22:11:13.055Z,2.57
2022-12-03T22:13:40.838Z,2.53
2022-12-03T22:16:17.209Z,2.51
2022-12-03T22:18:44.263Z,2.56
2022-12-03T22:21:16.278Z,2.79
2022-12-03T22:23:43.118Z,2.77
2022-12-03T22:26:15.388Z,2.79
2022-12-03T22:28:46.708Z,2.76
2022-12-03T22:31:13.976Z,2.61
2022-12-03T22:33:40.829Z,2.44
2022-12-03T22:36:17.996Z,2.42
2022-12-03T22:38:47.399Z,2.41
2022-12-03T22:41:14.460Z,2.35
2022-12-03T22:43:41.469Z,2.42
2022-12-03T22:46:10.970Z,2.62
2022-12-03T22:48:38.649Z,2.73
2022-12-03T22:51:13.915Z,2.66
2022-12-03T22:53:40.463Z,2.66
2022-12-03T22:56:07.218Z,2.64
2022-12-03T22:58:34.095Z,2.55
2022-12-03T23:01:03.176Z,2.55
2022-12-03T23:03:30.440Z,2.64
2022-12-03T23:05:57.134Z,2.64
2022-12-03T23:08:24.129Z,2.78
2022-12-03T23:10:52.559Z,2.73
2022-12-03T23:13:19.961Z,2.63
2022-12-03T23:15:48.795Z,2.62
2022-12-03T23:18:16.382Z,2.60
2022-12-03T23:21:01.612Z,2.71
2022-12-03T23:23:28.376Z,2.72
2022-12-03T23:26:03.463Z,2.72
2022-12-03T23:28:32.274Z,2.57
2022-12-03T23:30:59.233Z,2.66
2022-12-03T23:33:26.135Z,2.73
2022-12-03T23:35:52.950Z,2.72
2022-12-03T23:38:19.852Z,2.77
2022-12-03T23:40:48.330Z,2.77
2022-12-03T23:43:16.169Z,2.73
2022-12-03T23:45:42.793Z,2.67
2022-12-03T23:48:10.014Z,2.55
2022-12-03T23:50:39.626Z,2.33
2022-12-03T23:53:07.169Z,2.32
2022-12-03T23:55:34.630Z,2.56
2022-12-03T23:58:01.424Z,2.67
